Terminal Aerodrome Forecast
Issued by NWS

Home | Current Version | Previous Version | Text Only | Print | Product List | Glossary On
Versions: 1 2 3 4 5 6 7 8 9 10 11 12 13 14 15 16
000
FTUS43 KDDC 241120
TAFGCK
TAF
KGCK 241120Z 2412/2512 VRB04KT P6SM BKN200
     FM241500 04010KT P6SM OVC150
     FM242200 10010KT P6SM VCTS BKN050CB
     FM250300 06010KT P6SM -SHRA OVC100
     FM250600 06010KT 4SM BR VCSH OVC060
     FM250900 03010KT 2SM BR VCSH OVC009=

USA.gov is the U.S. government's official web portal to all federal, state and local government web resources and services.